Time;durP1;ratioP1;P1;durP2;ratioP2;P2;SDS_P1;SDS_P2;PMS_P1;PMS_P2;Temp;Humidity;BMP_temperature;BMP_pressure;BME280_temperature;BME280_humidity;BME280_pressure;Samples;Min_cycle;Max_cycle;Signal;HPM_P1;HPM_P2
2021/03/08 00:00:28;;;;;;;45.05;23.35;;;4.70;88.20;;;;;;5074872;28;20445;-57
2021/03/08 00:02:55;;;;;;;51.30;24.30;;;4.70;88.30;;;;;;5062510;28;20114;-55
2021/03/08 00:05:21;;;;;;;49.33;23.80;;;4.70;88.20;;;;;;5073648;28;20036;-56
2021/03/08 00:07:48;;;;;;;49.88;23.90;;;4.70;88.40;;;;;;5068914;28;20408;-56
2021/03/08 00:10:16;;;;;;;41.70;22.10;;;4.80;88.40;;;;;;5071241;28;20446;-57
2021/03/08 00:12:45;;;;;;;47.90;23.05;;;4.70;88.40;;;;;;5072710;28;20102;-57
2021/03/08 00:15:12;;;;;;;48.13;22.58;;;4.80;88.50;;;;;;5074100;28;20150;-56
2021/03/08 00:17:38;;;;;;;43.95;22.25;;;4.80;88.50;;;;;;5074954;28;20098;-55
2021/03/08 00:20:10;;;;;;;48.85;22.85;;;4.80;88.40;;;;;;5073193;28;20044;-56
2021/03/08 00:22:37;;;;;;;50.00;21.73;;;4.80;88.40;;;;;;5073946;28;20039;-56
2021/03/08 00:25:07;;;;;;;48.50;24.13;;;4.90;88.30;;;;;;5073112;28;20064;-56
2021/03/08 00:27:32;;;;;;;48.03;23.58;;;4.90;88.30;;;;;;5068230;28;20185;-56
2021/03/08 00:29:58;;;;;;;46.60;22.58;;;4.90;88.30;;;;;;5072590;28;20560;-55
2021/03/08 00:32:24;;;;;;;47.58;21.35;;;4.90;88.40;;;;;;5073537;28;20512;-54
2021/03/08 00:34:50;;;;;;;51.70;23.50;;;4.90;88.60;;;;;;5072328;28;20125;-55
2021/03/08 00:37:16;;;;;;;43.15;21.95;;;4.90;88.50;;;;;;5072485;28;20381;-55
2021/03/08 00:39:42;;;;;;;46.28;22.48;;;4.90;88.50;;;;;;5072669;28;20032;-56
2021/03/08 00:42:08;;;;;;;47.45;22.50;;;4.90;88.50;;;;;;5071300;28;20041;-56
2021/03/08 00:44:34;;;;;;;40.25;21.50;;;5.00;88.60;;;;;;5071927;28;20032;-55
2021/03/08 00:46:59;;;;;;;44.50;21.90;;;5.00;88.40;;;;;;5073152;28;20111;-55
2021/03/08 00:49:25;;;;;;;40.13;20.60;;;5.00;88.50;;;;;;5072715;28;20119;-56
2021/03/08 00:51:51;;;;;;;45.30;22.17;;;5.00;88.60;;;;;;5078872;28;20040;-56
2021/03/08 00:54:17;;;;;;;41.20;21.15;;;5.00;88.50;;;;;;5071953;28;20040;-55
2021/03/08 00:56:43;;;;;;;47.90;20.15;;;5.00;88.60;;;;;;5072501;28;20045;-56
2021/03/08 00:59:09;;;;;;;41.20;21.45;;;5.00;88.50;;;;;;5072999;28;20554;-56
2021/03/08 01:01:34;;;;;;;43.08;20.67;;;5.00;88.50;;;;;;5067327;28;20036;-56
2021/03/08 01:04:01;;;;;;;48.63;21.05;;;5.00;88.60;;;;;;5068240;28;20397;-56
2021/03/08 01:06:27;;;;;;;42.83;20.25;;;5.00;88.60;;;;;;5049043;28;20040;-55
2021/03/08 01:08:52;;;;;;;41.22;20.33;;;5.00;88.60;;;;;;5071469;28;20120;-55
2021/03/08 01:11:18;;;;;;;39.50;20.17;;;5.00;88.60;;;;;;5064011;28;20382;-56
2021/03/08 01:13:44;;;;;;;49.53;19.95;;;5.00;88.60;;;;;;5070208;28;20387;-55
2021/03/08 01:16:10;;;;;;;41.00;20.75;;;5.00;88.70;;;;;;5072413;28;20075;-54
2021/03/08 01:18:36;;;;;;;47.08;20.83;;;5.00;88.70;;;;;;5065748;28;20049;-55
2021/03/08 01:21:02;;;;;;;39.97;19.85;;;5.00;88.80;;;;;;5073276;28;20055;-56
2021/03/08 01:23:28;;;;;;;44.60;20.92;;;5.00;89.00;;;;;;5072397;28;20071;-56
2021/03/08 01:25:54;;;;;;;44.15;20.95;;;5.00;89.10;;;;;;5066590;28;20071;-55
2021/03/08 01:28:20;;;;;;;45.95;21.30;;;5.00;89.30;;;;;;5071732;28;20036;-56
2021/03/08 01:30:46;;;;;;;41.28;21.65;;;5.00;89.50;;;;;;5066490;28;20052;-56
2021/03/08 01:33:12;;;;;;;43.72;20.25;;;5.00;89.80;;;;;;5075985;28;20428;-55
2021/03/08 01:35:39;;;;;;;41.03;21.45;;;4.90;90.00;;;;;;5074521;28;20040;-55
2021/03/08 01:38:06;;;;;;;44.25;20.65;;;5.00;90.10;;;;;;5071952;28;20060;-56
2021/03/08 01:40:34;;;;;;;54.63;22.10;;;5.00;90.10;;;;;;5076851;28;20090;-55
2021/03/08 01:43:00;;;;;;;50.92;21.65;;;4.90;90.20;;;;;;5071372;28;20060;-55
2021/03/08 01:45:26;;;;;;;43.83;20.63;;;4.90;90.30;;;;;;5077230;28;20340;-55
2021/03/08 01:47:52;;;;;;;45.40;20.77;;;4.90;90.40;;;;;;5072228;28;20102;-56
2021/03/08 01:50:31;;;;;;;44.28;21.98;;;4.90;90.40;;;;;;5067910;28;20083;-55
2021/03/08 01:52:58;;;;;;;43.58;21.08;;;4.90;90.50;;;;;;5074717;28;20036;-54
2021/03/08 01:55:26;;;;;;;45.50;22.08;;;4.90;90.50;;;;;;5078508;28;20078;-56
2021/03/08 01:57:51;;;;;;;45.50;20.92;;;4.90;90.60;;;;;;5074197;28;20044;-56
2021/03/08 02:00:18;;;;;;;45.10;21.30;;;4.90;90.60;;;;;;5072324;28;20045;-55
2021/03/08 02:02:44;;;;;;;39.50;20.25;;;4.90;90.70;;;;;;5071612;28;20072;-55
2021/03/08 02:05:14;;;;;;;41.08;20.90;;;4.90;90.80;;;;;;5076460;28;20044;-56
2021/03/08 02:07:40;;;;;;;48.55;20.48;;;4.90;90.80;;;;;;5071440;28;20143;-53
2021/03/08 02:10:08;;;;;;;42.85;20.10;;;4.90;90.80;;;;;;5072880;28;20476;-56
2021/03/08 02:12:51;;;;;;;46.65;22.23;;;4.90;90.80;;;;;;5070929;28;20139;-56
2021/03/08 02:15:38;;;;;;;42.70;20.05;;;4.90;90.80;;;;;;5070775;28;20123;-56
2021/03/08 02:18:27;;;;;;;43.90;20.50;;;4.90;90.80;;;;;;5071432;28;20067;-55
2021/03/08 02:21:26;;;;;;;42.70;21.00;;;4.90;90.80;;;;;;5071818;28;20043;-56
2021/03/08 02:24:27;;;;;;;41.83;20.30;;;4.90;90.80;;;;;;5073459;28;20451;-56
2021/03/08 02:27:19;;;;;;;45.55;20.85;;;4.90;91.00;;;;;;5050359;28;20071;-56
2021/03/08 02:29:51;;;;;;;47.67;21.15;;;4.90;91.00;;;;;;5071692;28;20040;-56
2021/03/08 02:32:19;;;;;;;53.15;22.98;;;4.90;91.20;;;;;;5070431;28;20102;-54
2021/03/08 02:34:54;;;;;;;44.20;21.60;;;4.90;91.20;;;;;;5077663;28;20074;-56
2021/03/08 02:37:27;;;;;;;46.90;21.05;;;4.80;91.30;;;;;;5073806;28;20036;-56
2021/03/08 02:39:59;;;;;;;43.17;21.77;;;4.80;91.30;;;;;;5070878;28;20035;-55
2021/03/08 02:42:31;;;;;;;45.33;21.42;;;4.80;91.40;;;;;;5077631;28;20040;-55
2021/03/08 02:44:59;;;;;;;49.40;22.67;;;4.80;91.60;;;;;;5074726;28;20056;-55
2021/03/08 02:47:28;;;;;;;46.10;20.85;;;4.80;91.60;;;;;;5077142;28;20041;-55
2021/03/08 02:49:56;;;;;;;51.85;21.52;;;4.80;91.60;;;;;;5071757;28;20082;-55
2021/03/08 02:52:25;;;;;;;50.60;22.55;;;4.70;91.80;;;;;;5072386;28;20489;-56
2021/03/08 02:54:54;;;;;;;45.55;22.20;;;4.80;91.80;;;;;;5073014;28;20052;-55
2021/03/08 02:57:28;;;;;;;47.42;21.33;;;4.70;91.80;;;;;;5075741;28;20052;-55
2021/03/08 02:59:58;;;;;;;47.42;20.42;;;4.70;91.90;;;;;;5073101;28;20075;-55
2021/03/08 03:02:25;;;;;;;40.92;17.67;;;4.70;91.90;;;;;;5074222;28;20048;-55
2021/03/08 03:04:55;;;;;;;29.80;13.15;;;4.70;91.90;;;;;;5054868;28;20029;-54
2021/03/08 03:07:26;;;;;;;31.35;13.98;;;4.80;92.00;;;;;;5068521;28;20465;-54
2021/03/08 03:09:52;;;;;;;27.67;10.45;;;4.90;91.60;;;;;;5067865;28;20067;-56
2021/03/08 03:12:19;;;;;;;18.27;8.15;;;5.00;91.60;;;;;;5070471;28;20036;-56
2021/03/08 03:14:48;;;;;;;17.15;6.53;;;4.80;91.30;;;;;;5079632;28;20036;-54
2021/03/08 03:17:16;;;;;;;21.33;6.78;;;4.70;91.40;;;;;;5072939;28;20037;-55
2021/03/08 03:19:47;;;;;;;17.23;6.30;;;4.70;91.30;;;;;;5078487;28;20040;-56
2021/03/08 03:22:14;;;;;;;16.38;5.78;;;4.70;91.60;;;;;;5073330;28;20055;-53
2021/03/08 03:24:40;;;;;;;18.92;5.00;;;4.70;91.60;;;;;;5075623;28;20093;-55
2021/03/08 03:27:07;;;;;;;14.98;5.63;;;4.70;91.40;;;;;;5076378;28;20041;-55
2021/03/08 03:29:35;;;;;;;14.73;4.75;;;4.70;91.30;;;;;;5069622;28;20049;-55
2021/03/08 03:32:03;;;;;;;12.35;4.78;;;4.60;91.40;;;;;;5071231;28;20047;-54
2021/03/08 03:34:29;;;;;;;14.75;4.70;;;4.60;91.80;;;;;;5069452;28;20032;-56
2021/03/08 03:36:57;;;;;;;17.08;5.35;;;4.60;91.50;;;;;;5077670;28;20035;-54
2021/03/08 03:39:23;;;;;;;20.02;5.00;;;4.60;92.00;;;;;;5072377;28;20037;-50
2021/03/08 03:41:49;;;;;;;13.70;4.47;;;4.50;91.70;;;;;;5070593;28;20511;-51
2021/03/08 03:44:15;;;;;;;17.50;5.15;;;4.50;91.80;;;;;;5081061;28;20040;-54
2021/03/08 03:46:46;;;;;;;12.15;4.70;;;4.60;91.70;;;;;;5071785;28;20110;-52
2021/03/08 03:49:12;;;;;;;14.65;4.53;;;4.60;91.50;;;;;;5077023;28;20044;-52
2021/03/08 03:51:40;;;;;;;12.45;3.63;;;4.50;91.70;;;;;;5074496;28;20049;-53
2021/03/08 03:54:11;;;;;;;18.58;4.82;;;4.50;91.70;;;;;;5069925;28;20063;-51
2021/03/08 03:56:50;;;;;;;16.90;4.03;;;4.50;91.50;;;;;;5071699;28;20113;-51
2021/03/08 03:59:37;;;;;;;13.77;3.97;;;4.40;91.40;;;;;;5073716;28;20439;-50
2021/03/08 04:02:07;;;;;;;20.35;4.43;;;4.40;91.40;;;;;;5072174;28;20036;-53
2021/03/08 04:04:44;;;;;;;10.15;3.78;;;4.40;91.50;;;;;;5076144;28;20041;-50
2021/03/08 04:07:10;;;;;;;15.80;3.75;;;4.40;91.50;;;;;;5065743;28;20065;-54
2021/03/08 04:09:38;;;;;;;14.13;3.63;;;4.40;91.30;;;;;;5072012;28;20865;-52
2021/03/08 04:12:08;;;;;;;12.10;4.25;;;4.30;91.40;;;;;;5076290;28;20443;-52
2021/03/08 04:14:40;;;;;;;14.13;4.43;;;4.40;90.80;;;;;;5077074;28;20064;-52
2021/03/08 04:17:07;;;;;;;14.13;3.42;;;4.30;90.90;;;;;;5062253;28;20072;-55
2021/03/08 04:19:35;;;;;;;13.05;3.63;;;4.20;91.10;;;;;;5076722;28;20091;-52
2021/03/08 04:22:03;;;;;;;17.35;4.18;;;4.30;91.30;;;;;;5070428;28;20408;-55
2021/03/08 04:24:31;;;;;;;16.05;3.65;;;4.20;91.20;;;;;;5058283;28;20313;-53
2021/03/08 04:27:05;;;;;;;17.88;3.85;;;4.20;91.20;;;;;;5069032;28;20055;-51
2021/03/08 04:29:42;;;;;;;13.35;3.90;;;4.10;91.40;;;;;;5077028;28;20132;-53
2021/03/08 04:32:11;;;;;;;18.42;3.70;;;4.10;91.40;;;;;;5073671;28;20025;-51
2021/03/08 04:34:38;;;;;;;17.60;3.83;;;4.10;91.50;;;;;;5069101;28;20041;-51
2021/03/08 04:37:05;;;;;;;12.73;3.45;;;4.10;91.50;;;;;;5069857;28;20040;-53
2021/03/08 04:39:34;;;;;;;15.68;3.70;;;4.10;91.60;;;;;;5069451;28;20036;-51
2021/03/08 04:42:00;;;;;;;17.75;3.83;;;4.10;91.60;;;;;;5069878;28;20040;-54
2021/03/08 04:44:27;;;;;;;16.05;4.00;;;4.20;91.60;;;;;;5071065;28;20044;-53
2021/03/08 04:46:53;;;;;;;15.50;4.05;;;4.10;91.40;;;;;;5068913;28;20045;-55
2021/03/08 04:49:19;;;;;;;13.88;4.03;;;4.10;91.60;;;;;;5075827;28;20131;-53
2021/03/08 04:51:48;;;;;;;17.30;4.65;;;4.10;91.60;;;;;;5071122;28;20039;-54
2021/03/08 04:54:18;;;;;;;15.13;4.00;;;4.10;91.70;;;;;;5073451;28;20093;-54
2021/03/08 04:56:46;;;;;;;17.80;4.53;;;4.10;91.80;;;;;;5075654;28;20041;-51
2021/03/08 04:59:12;;;;;;;16.50;3.78;;;4.00;91.80;;;;;;5071761;28;20044;-51
2021/03/08 05:01:43;;;;;;;19.10;3.90;;;4.00;91.80;;;;;;5071131;28;20036;-56
2021/03/08 05:04:09;;;;;;;17.90;3.90;;;4.00;91.80;;;;;;5070953;28;20110;-50
2021/03/08 05:06:43;;;;;;;16.02;4.05;;;4.00;91.80;;;;;;5077887;28;20051;-53
2021/03/08 05:09:10;;;;;;;19.60;4.38;;;4.10;91.40;;;;;;5073428;28;20087;-54
2021/03/08 05:11:37;;;;;;;17.58;3.70;;;4.00;91.50;;;;;;5069840;28;20040;-53
2021/03/08 05:14:10;;;;;;;16.13;4.35;;;4.00;91.50;;;;;;5077259;28;20488;-51
2021/03/08 05:16:40;;;;;;;14.35;4.00;;;4.00;91.60;;;;;;5077041;28;20127;-53
2021/03/08 05:19:06;;;;;;;15.48;4.20;;;4.00;91.70;;;;;;5076158;28;20079;-52
2021/03/08 05:21:34;;;;;;;15.77;3.70;;;4.00;91.80;;;;;;5073026;28;20037;-56
2021/03/08 05:24:01;;;;;;;17.58;3.72;;;4.00;91.80;;;;;;5075167;28;20047;-53
2021/03/08 05:26:29;;;;;;;14.35;3.97;;;4.00;91.90;;;;;;5068184;28;20039;-52
2021/03/08 05:28:55;;;;;;;17.80;3.92;;;4.10;91.60;;;;;;5074130;28;20032;-53
2021/03/08 05:31:23;;;;;;;15.30;3.90;;;4.10;91.60;;;;;;5070498;28;20393;-53
2021/03/08 05:33:54;;;;;;;20.00;3.90;;;4.00;91.60;;;;;;5077953;28;20041;-52
2021/03/08 05:36:20;;;;;;;16.52;3.97;;;4.00;91.70;;;;;;5071441;28;20049;-53
2021/03/08 05:38:47;;;;;;;16.20;4.15;;;4.10;91.60;;;;;;5069272;28;20055;-54
2021/03/08 05:41:30;;;;;;;16.52;4.07;;;4.10;91.70;;;;;;5071898;28;20067;-53
2021/03/08 05:44:00;;;;;;;20.90;4.35;;;4.10;91.40;;;;;;5062226;28;20485;-52
2021/03/08 05:46:59;;;;;;;17.88;3.83;;;4.10;91.50;;;;;;5072260;28;20412;-53
2021/03/08 05:49:43;;;;;;;17.73;3.80;;;4.00;91.50;;;;;;5071924;28;20040;-54
2021/03/08 05:52:21;;;;;;;19.20;3.65;;;4.10;91.60;;;;;;5072373;28;20480;-53
2021/03/08 05:55:14;;;;;;;19.77;3.85;;;4.10;91.40;;;;;;5071401;28;20787;-56
2021/03/08 05:57:50;;;;;;;;;;;4.10;91.40;;;;;;5074161;28;20051;-52
2021/03/08 06:00:19;;;;;;;17.05;4.03;;;4.00;91.30;;;;;;5070880;28;20586;-53
2021/03/08 06:03:05;;;;;;;16.50;3.92;;;4.00;91.50;;;;;;5070073;28;20045;-53
2021/03/08 06:06:12;;;;;;;17.73;3.85;;;4.00;91.50;;;;;;5081393;28;20048;-54
2021/03/08 06:08:55;;;;;;;13.50;3.17;;;4.00;91.50;;;;;;5073401;28;20075;-54
2021/03/08 06:11:25;;;;;;;13.43;2.83;;;4.00;91.30;;;;;;5069214;28;20059;-51
2021/03/08 06:13:54;;;;;;;16.92;2.97;;;4.00;91.30;;;;;;5071393;28;20484;-55
2021/03/08 06:16:34;;;;;;;24.30;4.38;;;4.00;91.20;;;;;;5069319;28;20089;-54
2021/03/08 06:19:02;;;;;;;15.68;3.13;;;4.00;91.30;;;;;;5074398;28;20032;-52
2021/03/08 06:21:31;;;;;;;16.17;3.17;;;4.00;91.40;;;;;;5075761;28;20040;-54
2021/03/08 06:23:58;;;;;;;22.80;3.42;;;4.00;90.90;;;;;;5074015;28;20456;-54
2021/03/08 06:26:25;;;;;;;17.95;3.17;;;4.00;91.00;;;;;;5079204;28;20040;-52
2021/03/08 06:28:52;;;;;;;21.33;3.13;;;4.00;91.10;;;;;;5071006;28;20055;-55
2021/03/08 06:31:18;;;;;;;21.55;3.85;;;4.00;91.10;;;;;;5075201;28;20919;-52
2021/03/08 06:33:44;;;;;;;16.45;3.47;;;4.00;90.90;;;;;;5075736;28;20048;-53
2021/03/08 06:36:12;;;;;;;18.60;3.25;;;4.00;90.90;;;;;;5082582;28;20042;-54
2021/03/08 06:38:38;;;;;;;15.57;3.38;;;4.00;90.90;;;;;;5079966;28;20515;-54
2021/03/08 06:41:07;;;;;;;15.05;2.83;;;4.10;91.00;;;;;;5077929;28;20412;-53
2021/03/08 06:43:35;;;;;;;16.70;3.20;;;4.00;91.00;;;;;;5071415;28;20093;-53
2021/03/08 06:46:03;;;;;;;11.43;3.10;;;4.00;90.90;;;;;;5073600;28;20041;-53
2021/03/08 06:48:29;;;;;;;16.80;2.97;;;4.00;91.00;;;;;;5071843;28;20415;-52
2021/03/08 06:51:07;;;;;;;20.45;3.90;;;4.00;91.00;;;;;;5072418;28;20071;-50
2021/03/08 06:53:33;;;;;;;17.40;3.60;;;4.10;91.00;;;;;;5063451;28;20413;-51
2021/03/08 06:56:12;;;;;;;20.17;3.20;;;4.10;90.90;;;;;;5068406;28;20037;-52
2021/03/08 06:58:38;;;;;;;22.77;4.13;;;4.10;90.90;;;;;;5068430;28;20045;-53
2021/03/08 07:01:11;;;;;;;21.17;3.72;;;4.10;91.00;;;;;;5064918;28;20040;-49
2021/03/08 07:03:37;;;;;;;20.85;3.55;;;4.10;91.10;;;;;;5067382;28;20090;-52
2021/03/08 07:06:17;;;;;;;16.48;3.22;;;4.10;91.00;;;;;;5070765;28;20493;-52
2021/03/08 07:08:44;;;;;;;17.35;3.70;;;4.10;91.00;;;;;;5061992;28;20116;-51
2021/03/08 07:11:14;;;;;;;18.00;3.38;;;4.10;91.00;;;;;;5070784;28;20481;-52
2021/03/08 07:13:40;;;;;;;18.98;3.90;;;4.10;91.00;;;;;;5066806;28;20041;-51
2021/03/08 07:16:05;;;;;;;16.65;3.92;;;4.10;91.10;;;;;;5062295;28;20507;-51
2021/03/08 07:18:33;;;;;;;18.77;3.78;;;4.10;91.10;;;;;;5052494;28;20102;-55
2021/03/08 07:21:18;;;;;;;16.38;3.60;;;4.10;91.20;;;;;;5070910;28;20439;-52
2021/03/08 07:23:46;;;;;;;19.10;4.15;;;4.10;91.10;;;;;;5045427;28;20052;-50
2021/03/08 07:26:21;;;;;;;27.42;4.20;;;4.20;91.10;;;;;;5065825;28;20040;-52
2021/03/08 07:29:09;;;;;;;22.33;4.70;;;4.20;91.10;;;;;;5068319;28;20123;-49
2021/03/08 07:31:45;;;;;;;19.10;4.85;;;4.30;91.00;;;;;;5066194;28;20404;-49
2021/03/08 07:34:13;;;;;;;18.75;4.95;;;4.30;91.00;;;;;;5065720;28;20041;-51
2021/03/08 07:36:40;;;;;;;18.20;4.38;;;4.30;90.90;;;;;;5065777;28;20041;-50
2021/03/08 07:39:16;;;;;;;20.40;4.28;;;4.30;90.90;;;;;;5064030;28;20532;-52
2021/03/08 07:42:00;;;;;;;23.58;4.32;;;4.40;90.90;;;;;;5067379;28;20452;-49
2021/03/08 07:44:28;;;;;;;24.63;4.93;;;4.40;90.90;;;;;;5059083;28;20041;-52
2021/03/08 07:46:56;;;;;;;21.92;5.10;;;4.40;90.80;;;;;;5060048;28;20059;-51
2021/03/08 07:49:36;;;;;;;23.05;6.70;;;4.50;90.80;;;;;;5041689;28;20040;-51
2021/03/08 07:52:11;;;;;;;20.08;4.55;;;4.50;90.90;;;;;;5062334;28;20052;-51
2021/03/08 07:54:58;;;;;;;22.13;6.22;;;4.60;90.70;;;;;;5059667;28;20044;-53
2021/03/08 07:57:26;;;;;;;28.40;9.32;;;4.60;90.50;;;;;;5057797;28;20521;-53
2021/03/08 07:59:52;;;;;;;24.45;6.13;;;4.60;90.60;;;;;;5059230;28;20052;-49
2021/03/08 08:02:18;;;;;;;25.58;6.13;;;4.70;90.50;;;;;;5063850;28;20056;-54
2021/03/08 08:04:44;;;;;;;23.58;5.07;;;4.70;90.20;;;;;;5060588;28;20037;-53
2021/03/08 08:07:12;;;;;;;21.30;5.10;;;4.70;90.00;;;;;;5061377;28;20073;-52
2021/03/08 08:09:43;;;;;;;24.80;5.82;;;4.70;90.10;;;;;;5061073;28;20041;-52
2021/03/08 08:12:11;;;;;;;22.80;4.85;;;4.80;90.00;;;;;;5060736;28;20052;-52
2021/03/08 08:14:39;;;;;;;18.50;4.55;;;4.80;90.10;;;;;;5063221;28;20040;-50
2021/03/08 08:17:11;;;;;;;16.85;4.72;;;4.80;90.20;;;;;;5062000;28;20482;-50
2021/03/08 08:19:43;;;;;;;20.48;5.07;;;4.90;90.20;;;;;;5061363;28;20045;-50
2021/03/08 08:22:15;;;;;;;25.95;5.55;;;5.00;90.10;;;;;;5056014;28;20452;-53
2021/03/08 08:24:42;;;;;;;;;;;5.10;89.60;;;;;;5059184;28;20049;-53
2021/03/08 08:27:10;;;;;;;22.55;6.40;;;5.20;89.20;;;;;;5063979;28;19916;-51
2021/03/08 08:29:36;;;;;;;21.02;5.97;;;5.30;88.20;;;;;;5073687;28;20082;-49
2021/03/08 08:32:04;;;;;;;25.20;5.25;;;5.30;88.50;;;;;;5068729;28;20096;-51
2021/03/08 08:34:38;;;;;;;18.55;5.50;;;5.30;88.10;;;;;;5063988;28;20033;-52
2021/03/08 08:37:04;;;;;;;20.48;4.95;;;5.30;86.80;;;;;;5066953;28;20048;-52
2021/03/08 08:39:30;;;;;;;17.55;4.38;;;5.30;86.80;;;;;;5063073;28;20040;-53
2021/03/08 08:42:16;;;;;;;21.77;4.50;;;5.40;86.40;;;;;;5061942;28;20028;-53
2021/03/08 08:44:44;;;;;;;22.10;4.93;;;5.20;85.80;;;;;;5062553;28;20051;-51
2021/03/08 08:47:29;;;;;;;21.58;4.80;;;5.30;86.30;;;;;;5059574;28;20119;-53
2021/03/08 08:49:58;;;;;;;17.67;4.75;;;5.30;86.70;;;;;;5061297;28;20335;-56
2021/03/08 08:52:45;;;;;;;16.42;4.55;;;5.30;85.90;;;;;;5063026;28;20052;-53
2021/03/08 08:55:11;;;;;;;23.13;4.32;;;5.30;82.60;;;;;;5057954;28;20052;-54
2021/03/08 08:57:37;;;;;;;24.60;4.97;;;5.40;83.20;;;;;;5066576;28;20046;-56
2021/03/08 09:00:14;;;;;;;20.48;4.57;;;5.30;84.40;;;;;;5071362;28;20070;-55
2021/03/08 09:02:39;;;;;;;16.13;4.53;;;5.40;84.50;;;;;;5069227;28;20041;-52
2021/03/08 09:05:28;;;;;;;17.02;5.18;;;5.40;84.20;;;;;;5074152;28;20455;-55
2021/03/08 09:08:23;;;;;;;20.17;4.38;;;5.40;84.50;;;;;;5072014;28;20032;-53
2021/03/08 09:10:49;;;;;;;14.35;3.97;;;5.50;83.80;;;;;;5067065;28;20047;-54
2021/03/08 09:13:15;;;;;;;15.68;4.45;;;5.50;83.70;;;;;;5072616;28;20032;-54
2021/03/08 09:15:41;;;;;;;17.90;4.85;;;5.60;83.90;;;;;;5072285;28;20475;-55
2021/03/08 09:18:09;;;;;;;16.45;4.53;;;5.60;82.50;;;;;;5080177;28;20439;-54
2021/03/08 09:20:35;;;;;;;16.48;4.55;;;5.60;82.40;;;;;;5076714;28;20083;-55
2021/03/08 09:23:03;;;;;;;19.40;5.22;;;5.60;83.10;;;;;;5077679;28;20120;-52
2021/03/08 09:25:31;;;;;;;18.15;4.72;;;5.70;83.10;;;;;;5066990;28;20565;-54
2021/03/08 09:28:10;;;;;;;25.48;4.85;;;5.80;82.30;;;;;;5078442;28;20094;-53
2021/03/08 09:30:48;;;;;;;22.52;5.25;;;5.80;81.50;;;;;;5076576;28;20044;-54
2021/03/08 09:33:18;;;;;;;24.05;4.90;;;5.80;82.70;;;;;;5070645;28;20094;-50
2021/03/08 09:35:47;;;;;;;20.75;4.97;;;5.90;80.80;;;;;;5071713;28;20113;-53
2021/03/08 09:38:20;;;;;;;17.83;5.00;;;5.90;79.80;;;;;;5073060;28;20036;-53
2021/03/08 09:40:57;;;;;;;20.40;4.63;;;5.80;80.30;;;;;;5072134;28;20048;-52
2021/03/08 09:43:26;;;;;;;19.23;5.00;;;5.90;80.40;;;;;;5066524;28;20520;-57
2021/03/08 09:46:00;;;;;;;14.20;4.57;;;6.00;80.30;;;;;;5063922;28;20121;-57
2021/03/08 09:48:28;;;;;;;19.80;4.75;;;5.90;80.10;;;;;;5061165;28;20052;-57
2021/03/08 09:51:00;;;;;;;22.08;5.53;;;5.90;80.80;;;;;;5053899;28;20056;-57
2021/03/08 09:53:31;;;;;;;20.10;4.95;;;6.00;80.10;;;;;;5056813;28;20084;-57
2021/03/08 09:56:06;;;;;;;16.13;4.30;;;5.90;80.40;;;;;;5076382;28;20043;-56
2021/03/08 09:58:32;;;;;;;15.10;4.93;;;6.00;80.20;;;;;;5070124;28;20086;-57
2021/03/08 10:00:59;;;;;;;22.42;5.82;;;6.10;81.50;;;;;;5061166;28;20036;-57
2021/03/08 10:03:25;;;;;;;19.17;4.60;;;6.20;81.40;;;;;;5064100;28;20041;-56
2021/03/08 10:05:55;;;;;;;21.85;5.55;;;6.30;78.10;;;;;;5065616;28;20104;-57
2021/03/08 10:08:29;;;;;;;16.05;4.53;;;6.30;77.30;;;;;;5064320;28;20047;-55
2021/03/08 10:10:55;;;;;;;18.80;4.38;;;6.20;78.50;;;;;;5068550;28;20071;-57
2021/03/08 10:13:22;;;;;;;15.68;4.53;;;6.30;80.20;;;;;;5064984;28;20105;-52
2021/03/08 10:15:52;;;;;;;19.45;5.43;;;6.30;80.40;;;;;;5067338;28;20051;-54
2021/03/08 10:18:23;;;;;;;21.10;5.22;;;6.30;80.70;;;;;;5069808;28;20400;-53
2021/03/08 10:21:01;;;;;;;20.10;4.60;;;6.40;81.30;;;;;;5073613;28;20068;-54
2021/03/08 10:23:32;;;;;;;13.32;4.32;;;6.40;81.50;;;;;;5068227;28;20488;-54
2021/03/08 10:26:12;;;;;;;15.13;4.80;;;6.50;80.50;;;;;;5063972;28;20036;-54
2021/03/08 10:28:52;;;;;;;18.45;4.75;;;6.50;80.10;;;;;;5063572;28;20045;-51
2021/03/08 10:31:19;;;;;;;19.23;4.80;;;6.40;77.90;;;;;;5060623;28;20041;-55
2021/03/08 10:33:55;;;;;;;14.60;4.25;;;6.40;78.90;;;;;;5067071;28;20112;-54
2021/03/08 10:36:23;;;;;;;20.15;5.75;;;6.40;79.50;;;;;;5059570;28;20048;-53
2021/03/08 10:38:57;;;;;;;18.50;5.18;;;6.30;78.10;;;;;;5061079;28;20123;-52
2021/03/08 10:41:25;;;;;;;20.27;4.68;;;6.30;79.00;;;;;;5069266;28;20090;-54
2021/03/08 10:43:52;;;;;;;19.48;4.97;;;6.30;79.90;;;;;;5070294;28;20435;-54
2021/03/08 10:46:18;;;;;;;13.98;4.70;;;6.30;80.60;;;;;;5070079;28;20040;-54
2021/03/08 10:48:57;;;;;;;24.02;4.38;;;6.30;80.70;;;;;;5071233;28;20047;-54
2021/03/08 10:51:23;;;;;;;21.38;5.05;;;6.50;80.10;;;;;;5069116;28;20428;-55
2021/03/08 10:54:03;;;;;;;18.65;4.50;;;6.60;80.50;;;;;;5070142;28;20052;-52
2021/03/08 10:56:30;;;;;;;14.15;4.50;;;6.60;79.70;;;;;;5070464;28;20032;-54
2021/03/08 10:58:57;;;;;;;19.23;4.75;;;6.70;78.10;;;;;;5070730;28;20048;-55
2021/03/08 11:01:24;;;;;;;18.17;5.07;;;6.70;77.90;;;;;;5069769;28;20051;-55
2021/03/08 11:03:49;;;;;;;15.00;4.68;;;6.80;77.30;;;;;;5070382;28;20032;-53
2021/03/08 11:06:17;;;;;;;18.08;4.38;;;6.70;77.50;;;;;;5071404;28;20047;-54
2021/03/08 11:09:00;;;;;;;18.92;5.40;;;6.70;77.50;;;;;;5075047;28;20055;-54
2021/03/08 11:11:30;;;;;;;14.43;4.25;;;6.80;78.40;;;;;;5069510;28;20103;-55
2021/03/08 11:14:04;;;;;;;13.93;4.68;;;6.90;77.60;;;;;;5069801;28;20033;-55
2021/03/08 11:16:34;;;;;;;22.60;5.15;;;7.00;77.00;;;;;;5074082;28;20037;-54
2021/03/08 11:19:27;;;;;;;16.35;4.63;;;7.00;78.20;;;;;;5066546;28;20415;-55
2021/03/08 11:22:14;;;;;;;15.00;5.13;;;7.10;77.40;;;;;;5068334;28;20108;-55
2021/03/08 11:24:48;;;;;;;22.15;4.93;;;7.20;77.70;;;;;;5073060;28;20041;-56
2021/03/08 11:27:21;;;;;;;13.75;4.28;;;7.20;77.60;;;;;;5070436;28;20045;-55
2021/03/08 11:30:10;;;;;;;19.02;4.68;;;7.20;77.40;;;;;;5075485;28;20052;-56
2021/03/08 11:32:38;;;;;;;16.58;3.88;;;7.20;76.50;;;;;;5076955;28;20481;-55
2021/03/08 11:35:06;;;;;;;19.92;4.65;;;7.20;77.30;;;;;;5062408;28;20115;-54
2021/03/08 11:37:33;;;;;;;15.00;4.38;;;7.30;76.70;;;;;;5075697;28;20041;-53
2021/03/08 11:40:04;;;;;;;18.88;4.35;;;7.20;76.80;;;;;;5074787;28;20120;-54
2021/03/08 11:42:30;;;;;;;14.00;3.93;;;7.30;75.60;;;;;;5074418;28;20108;-54
2021/03/08 11:44:57;;;;;;;21.35;4.97;;;7.30;73.90;;;;;;5082549;28;20036;-54
2021/03/08 11:47:23;;;;;;;21.77;5.32;;;7.20;74.50;;;;;;5078734;28;20408;-51
2021/03/08 11:49:49;;;;;;;21.20;5.25;;;7.20;75.10;;;;;;5069910;28;20055;-52
2021/03/08 11:52:15;;;;;;;14.02;3.97;;;7.20;74.40;;;;;;5075017;28;20048;-52
2021/03/08 11:54:42;;;;;;;14.45;4.22;;;7.20;73.10;;;;;;5085663;28;20044;-54
2021/03/08 11:57:09;;;;;;;9.90;3.70;;;7.10;72.90;;;;;;5079288;28;20094;-57
2021/03/08 11:59:36;;;;;;;17.55;4.47;;;7.10;74.70;;;;;;5075485;28;20068;-53
2021/03/08 12:02:02;;;;;;;12.77;3.75;;;7.20;74.80;;;;;;5069780;28;20052;-55
2021/03/08 12:04:28;;;;;;;17.15;4.43;;;7.40;73.60;;;;;;5072799;28;20116;-56
2021/03/08 12:06:53;;;;;;;13.25;4.25;;;7.50;73.50;;;;;;5076864;28;20123;-55
2021/03/08 12:09:19;;;;;;;16.05;4.50;;;7.60;71.80;;;;;;5071218;28;20103;-51
2021/03/08 12:11:46;;;;;;;11.43;3.58;;;7.70;72.20;;;;;;5068803;28;20564;-54
2021/03/08 12:14:11;;;;;;;15.52;3.70;;;7.70;72.90;;;;;;5077246;28;20135;-53
2021/03/08 12:16:37;;;;;;;13.48;3.28;;;8.00;73.20;;;;;;5070975;28;22011;-53
2021/03/08 12:19:03;;;;;;;10.25;3.58;;;7.80;74.00;;;;;;5081211;28;20078;-52
2021/03/08 12:21:30;;;;;;;14.15;3.53;;;7.90;73.80;;;;;;5079137;28;21575;-51
2021/03/08 12:23:56;;;;;;;10.63;3.58;;;8.00;73.30;;;;;;5078346;28;20067;-53
2021/03/08 12:26:22;;;;;;;11.13;3.50;;;8.00;71.70;;;;;;5079435;28;20059;-50
2021/03/08 12:28:48;;;;;;;13.52;3.50;;;8.00;72.30;;;;;;5073094;28;20045;-50
2021/03/08 12:31:14;;;;;;;15.13;3.72;;;8.00;72.20;;;;;;5072267;28;20045;-54
2021/03/08 12:33:40;;;;;;;13.68;3.38;;;8.00;72.50;;;;;;5066873;28;20394;-53
2021/03/08 12:36:07;;;;;;;14.13;3.40;;;8.00;71.00;;;;;;5076068;28;20115;-52
2021/03/08 12:38:34;;;;;;;12.90;3.33;;;8.00;71.10;;;;;;5081078;28;20090;-55
2021/03/08 12:41:00;;;;;;;11.10;3.40;;;8.00;72.40;;;;;;5084294;28;20069;-53
2021/03/08 12:43:26;;;;;;;12.05;3.08;;;8.00;73.20;;;;;;5080782;28;20408;-53
2021/03/08 12:45:52;;;;;;;16.65;3.50;;;8.10;73.50;;;;;;5069474;28;20455;-53
2021/03/08 12:48:21;;;;;;;17.23;3.80;;;8.10;72.90;;;;;;5074397;28;20044;-53
2021/03/08 12:50:48;;;;;;;13.82;3.40;;;8.10;72.40;;;;;;5072629;28;20052;-54
2021/03/08 12:53:14;;;;;;;9.45;3.10;;;8.00;73.50;;;;;;5080862;28;20533;-54
2021/03/08 12:55:40;;;;;;;15.50;3.95;;;8.00;71.20;;;;;;5081219;28;20040;-53
2021/03/08 12:58:06;;;;;;;9.38;2.95;;;7.90;71.20;;;;;;5078418;28;20085;-55
2021/03/08 13:00:33;;;;;;;13.52;3.60;;;7.90;70.70;;;;;;5084942;28;20485;-50